createdAt,value
2016-06-20T00:00:45.274Z,13.35
2016-06-20T00:01:45.918Z,13.28
2016-06-20T00:02:44.734Z,13.28
2016-06-20T00:03:45.378Z,13.27
2016-06-20T00:04:45.412Z,13.27
2016-06-20T00:05:46.057Z,13.37
2016-06-20T00:06:44.872Z,13.42
2016-06-20T00:07:45.533Z,13.42
2016-06-20T00:08:44.942Z,13.49
2016-06-20T00:09:45.587Z,13.35
2016-06-20T00:10:45.621Z,13.37
2016-06-20T00:11:46.265Z,13.35
2016-06-20T00:12:45.081Z,13.35
2016-06-20T00:13:45.709Z,13.27
2016-06-20T00:14:45.150Z,13.25
2016-06-20T00:15:45.186Z,13.15
2016-06-20T00:16:45.845Z,13.25
2016-06-20T00:17:45.864Z,13.25
2016-06-20T00:18:45.899Z,13.16
2016-06-20T00:19:46.559Z,13.01
2016-06-20T00:20:46.562Z,13.03
2016-06-20T00:21:45.393Z,13.13
2016-06-20T00:22:46.647Z,13.18
2016-06-20T00:23:46.072Z,13.23
2016-06-20T00:24:46.107Z,13.35
2016-06-20T00:25:45.548Z,13.16
2016-06-20T00:26:46.191Z,13.15
2016-06-20T00:27:46.212Z,13.23
2016-06-20T00:28:45.653Z,13.04
2016-06-20T00:29:46.296Z,13.2
2016-06-20T00:30:46.924Z,13.13
2016-06-20T00:31:45.756Z,13.16
2016-06-20T00:32:46.995Z,13.28
2016-06-20T00:33:46.420Z,13.3
2016-06-20T00:34:47.063Z,13.18
2016-06-20T00:35:46.489Z,13.23
2016-06-20T00:36:46.524Z,13.13
2016-06-20T00:37:46.559Z,13.18
2016-06-20T00:38:47.202Z,13.11
2016-06-20T00:39:47.237Z,13.16
2016-06-20T00:40:46.662Z,13.12
2016-06-20T00:41:46.103Z,13.08
2016-06-20T00:42:46.747Z,13.08
2016-06-20T00:43:47.376Z,13.13
2016-06-20T00:44:46.801Z,13.12
2016-06-20T00:45:46.243Z,13.11
2016-06-20T00:46:46.277Z,13.05
2016-06-20T00:47:47.515Z,13.04
2016-06-20T00:48:46.940Z,13.09
2016-06-20T00:49:47.585Z,13.05
2016-06-20T00:50:47.618Z,13.08
2016-06-20T00:51:47.044Z,13.03
2016-06-20T00:52:47.688Z,13.04
2016-06-20T00:53:46.535Z,12.98
2016-06-20T00:54:47.148Z,13.03
2016-06-20T00:55:47.230Z,13.01
2016-06-20T00:56:47.217Z,12.94
2016-06-20T00:57:46.659Z,12.87
2016-06-20T00:58:47.287Z,13
2016-06-20T00:59:47.369Z,13.01
2016-06-20T01:00:47.373Z,13.08
2016-06-20T01:01:47.392Z,12.98
2016-06-20T01:02:48.066Z,13.15
2016-06-20T01:03:47.461Z,13.18
2016-06-20T01:04:48.105Z,13.13
2016-06-20T01:05:47.531Z,13.16
2016-06-20T01:06:47.580Z,13.11
2016-06-20T01:07:47.600Z,13.2
2016-06-20T01:08:48.244Z,13.18
2016-06-20T01:09:47.090Z,13.12
2016-06-20T01:10:47.719Z,13.13
2016-06-20T01:11:47.755Z,13.19
2016-06-20T01:12:47.789Z,13.12
2016-06-20T01:13:47.823Z,13.18
2016-06-20T01:14:47.249Z,13.18
2016-06-20T01:15:48.503Z,12.9
2016-06-20T01:16:48.522Z,12.9
2016-06-20T01:17:47.962Z,12.79
2016-06-20T01:18:47.981Z,12.94
2016-06-20T01:19:47.422Z,12.98
2016-06-20T01:20:48.067Z,12.87
2016-06-20T01:21:47.476Z,12.91
2016-06-20T01:22:48.745Z,12.86
2016-06-20T01:23:47.561Z,12.82
2016-06-20T01:24:48.800Z,12.78
2016-06-20T01:25:48.240Z,12.72
2016-06-20T01:26:48.259Z,12.61
2016-06-20T01:27:47.700Z,12.65
2016-06-20T01:28:48.329Z,12.58
2016-06-20T01:29:48.379Z,12.6
2016-06-20T01:30:48.413Z,12.62
2016-06-20T01:31:48.433Z,12.61
2016-06-20T01:32:47.875Z,12.57
2016-06-20T01:33:49.128Z,12.58
2016-06-20T01:34:48.552Z,12.57
2016-06-20T01:35:47.962Z,12.58
2016-06-20T01:36:48.028Z,12.55
2016-06-20T01:37:48.642Z,12.65
2016-06-20T01:38:48.676Z,12.58
2016-06-20T01:39:48.117Z,12.6
2016-06-20T01:40:48.761Z,12.57
2016-06-20T01:41:48.795Z,12.58
2016-06-20T01:42:48.830Z,12.55
2016-06-20T01:43:48.849Z,12.6
2016-06-20T01:44:49.494Z,12.6
2016-06-20T01:45:49.528Z,12.57
2016-06-20T01:46:48.359Z,12.62
2016-06-20T01:47:48.988Z,12.57
2016-06-20T01:48:49.632Z,12.47
2016-06-20T01:49:49.089Z,12.53
2016-06-20T01:50:49.107Z,12.57
2016-06-20T01:51:49.143Z,12.55
2016-06-20T01:52:49.161Z,12.55
2016-06-20T01:53:49.212Z,12.6
2016-06-20T01:54:49.232Z,12.64
2016-06-20T01:55:48.672Z,12.5
2016-06-20T01:56:49.910Z,12.49
2016-06-20T01:57:49.945Z,12.5
2016-06-20T01:58:49.385Z,12.39
2016-06-20T01:59:49.405Z,12.43
2016-06-20T02:00:50.064Z,12.4
2016-06-20T02:01:49.474Z,12.28
2016-06-20T02:02:50.118Z,12.17
2016-06-20T02:03:49.543Z,12.24
2016-06-20T02:04:48.968Z,12.29
2016-06-20T02:05:49.019Z,12.31
2016-06-20T02:06:49.648Z,12.36
2016-06-20T02:07:50.291Z,12.39
2016-06-20T02:08:49.749Z,12.4
2016-06-20T02:09:50.361Z,12.45
2016-06-20T02:10:49.787Z,12.37
2016-06-20T02:11:49.212Z,12.4
2016-06-20T02:12:49.247Z,12.37
2016-06-20T02:13:49.891Z,12.27
2016-06-20T02:14:49.926Z,12.25
2016-06-20T02:15:49.960Z,12.25
2016-06-20T02:16:49.994Z,12.32
2016-06-20T02:17:49.451Z,12.28
2016-06-20T02:18:50.064Z,12.39
2016-06-20T02:19:50.114Z,12.39
2016-06-20T02:20:49.540Z,12.29
2016-06-20T02:21:50.168Z,12.27
2016-06-20T02:22:50.203Z,12.29
2016-06-20T02:23:50.238Z,12.27
2016-06-20T02:24:50.272Z,12.24
2016-06-20T02:25:50.307Z,12.28
2016-06-20T02:26:50.951Z,12.35
2016-06-20T02:27:50.376Z,12.32
2016-06-20T02:28:51.036Z,12.28
2016-06-20T02:29:50.431Z,12.25
2016-06-20T02:30:51.090Z,12.27
2016-06-20T02:31:49.906Z,12.32
2016-06-20T02:32:49.941Z,12.35
2016-06-20T02:33:50.585Z,12.31
2016-06-20T02:34:50.619Z,12.31
2016-06-20T02:35:50.654Z,12.12
2016-06-20T02:36:50.673Z,12.17
2016-06-20T02:37:50.114Z,12.17
2016-06-20T02:38:51.367Z,12.17
2016-06-20T02:39:51.386Z,12.07
2016-06-20T02:40:51.437Z,12
2016-06-20T02:41:50.863Z,12.04
2016-06-20T02:42:50.881Z,12.03
2016-06-20T02:43:51.526Z,12.06
2016-06-20T02:44:51.560Z,12.12
2016-06-20T02:45:50.392Z,12.17
2016-06-20T02:46:50.411Z,12.2
2016-06-20T02:47:51.054Z,12.2
2016-06-20T02:48:51.715Z,12.15
2016-06-20T02:49:51.750Z,12.27
2016-06-20T02:50:51.158Z,12.12
2016-06-20T02:51:50.584Z,12.18
2016-06-20T02:52:51.854Z,12.22
2016-06-20T02:53:50.654Z,12.21
2016-06-20T02:54:51.297Z,12.12
2016-06-20T02:55:50.723Z,12.22
2016-06-20T02:56:51.372Z,12.15
2016-06-20T02:57:50.806Z,12.03
2016-06-20T02:58:51.474Z,12.04
2016-06-20T02:59:50.892Z,11.94
2016-06-20T03:00:50.950Z,11.95
2016-06-20T03:01:52.179Z,12.1
2016-06-20T03:02:52.232Z,11.94
2016-06-20T03:03:51.051Z,12.07
2016-06-20T03:04:52.292Z,12.02
2016-06-20T03:05:52.345Z,12.02
2016-06-20T03:06:51.773Z,12.06
2016-06-20T03:07:51.808Z,12.04
2016-06-20T03:08:51.828Z,12.04
2016-06-20T03:09:52.489Z,12
2016-06-20T03:10:52.526Z,12.04
2016-06-20T03:11:51.951Z,12.18
2016-06-20T03:12:51.376Z,12.24
2016-06-20T03:13:51.428Z,12.28
2016-06-20T03:14:52.651Z,12.29
2016-06-20T03:15:52.685Z,12.2
2016-06-20T03:16:51.517Z,12.18
2016-06-20T03:17:52.146Z,12.13
2016-06-20T03:18:51.603Z,12.24
2016-06-20T03:19:52.216Z,12.07
2016-06-20T03:20:52.252Z,12.06
2016-06-20T03:21:51.677Z,12.03
2016-06-20T03:22:51.712Z,12.1
2016-06-20T03:23:51.746Z,12
2016-06-20T03:24:53.000Z,12.07
2016-06-20T03:25:51.847Z,12.13
2016-06-20T03:26:53.070Z,12.21
2016-06-20T03:27:51.932Z,12.28
2016-06-20T03:28:52.529Z,12.29
2016-06-20T03:29:51.955Z,12.31
2016-06-20T03:30:51.989Z,12.28
2016-06-20T03:31:52.633Z,12.24
2016-06-20T03:32:52.668Z,12.29
2016-06-20T03:33:52.719Z,12.09
2016-06-20T03:34:52.738Z,11.81
2016-06-20T03:35:52.162Z,11.9
2016-06-20T03:36:52.807Z,11.88
2016-06-20T03:37:52.841Z,11.83
2016-06-20T03:38:52.877Z,11.87
2016-06-20T03:39:52.302Z,12.02
2016-06-20T03:40:52.337Z,12.06
2016-06-20T03:41:52.966Z,12
2016-06-20T03:42:53.016Z,11.94
2016-06-20T03:43:53.050Z,12
2016-06-20T03:44:53.101Z,12.03
2016-06-20T03:45:53.120Z,12.15
2016-06-20T03:46:53.763Z,12.15
2016-06-20T03:47:53.189Z,12.32
2016-06-20T03:48:53.207Z,12.35
2016-06-20T03:49:53.258Z,12.45
2016-06-20T03:50:52.683Z,12.31
2016-06-20T03:51:52.703Z,12.25
2016-06-20T03:52:52.753Z,12.12
2016-06-20T03:53:53.991Z,12.1
2016-06-20T03:54:53.432Z,12.22
2016-06-20T03:55:52.842Z,12.25
2016-06-20T03:56:52.892Z,12.29
2016-06-20T03:57:53.521Z,12.24
2016-06-20T03:58:54.180Z,12.31
2016-06-20T03:59:52.981Z,12.43
2016-06-20T04:00:53.046Z,12.42
2016-06-20T04:01:53.659Z,12.43
2016-06-20T04:02:53.694Z,12.5
2016-06-20T04:03:53.728Z,12.47
2016-06-20T04:04:53.154Z,12.58
2016-06-20T04:05:54.407Z,12.55
2016-06-20T04:06:53.223Z,12.55
2016-06-20T04:07:53.258Z,12.53
2016-06-20T04:08:53.902Z,12.54
2016-06-20T04:09:54.546Z,12.54
2016-06-20T04:10:53.972Z,12.55
2016-06-20T04:11:53.381Z,12.53
2016-06-20T04:12:54.040Z,12.35
2016-06-20T04:13:54.076Z,12.43
2016-06-20T04:14:54.111Z,12.37
2016-06-20T04:15:53.536Z,12.47
2016-06-20T04:16:54.790Z,12.55
2016-06-20T04:17:54.824Z,12.54
2016-06-20T04:18:54.249Z,12.54
2016-06-20T04:19:54.269Z,12.5
2016-06-20T04:20:54.929Z,12.55
2016-06-20T04:21:54.962Z,12.62
2016-06-20T04:22:54.388Z,12.62
2016-06-20T04:23:54.407Z,12.73
2016-06-20T04:24:54.457Z,12.64
2016-06-20T04:25:54.492Z,12.72
2016-06-20T04:26:53.918Z,12.68
2016-06-20T04:27:54.561Z,12.79
2016-06-20T04:28:53.987Z,12.9
2016-06-20T04:29:54.021Z,13
2016-06-20T04:30:54.057Z,13
2016-06-20T04:31:54.092Z,13.01
2016-06-20T04:32:54.735Z,13.01
2016-06-20T04:33:54.770Z,13.04
2016-06-20T04:34:55.413Z,12.98
2016-06-20T04:35:55.449Z,13.03
2016-06-20T04:36:54.873Z,13.44
2016-06-20T04:37:54.299Z,13.9
2016-06-20T04:38:55.537Z,14.45
2016-06-20T04:39:55.588Z,14.81
2016-06-20T04:40:55.012Z,15.22
2016-06-20T04:41:54.438Z,15.46
2016-06-20T04:42:55.082Z,15.82
2016-06-20T04:43:55.148Z,16.1
2016-06-20T04:44:55.776Z,16.51
2016-06-20T04:45:55.796Z,16.61
2016-06-20T04:46:54.612Z,16.71
2016-06-20T04:47:55.272Z,16.83
2016-06-20T04:48:54.681Z,16.83
2016-06-20T04:49:55.340Z,16.9
2016-06-20T04:50:54.766Z,17.04
2016-06-20T04:51:56.020Z,17.08
2016-06-20T04:52:54.835Z,17.24
2016-06-20T04:53:54.886Z,17.44
2016-06-20T04:54:56.124Z,17.71
2016-06-20T04:55:54.939Z,17.67
2016-06-20T04:56:55.583Z,17.94
2016-06-20T04:57:55.634Z,17.83
2016-06-20T04:58:56.278Z,17.78
2016-06-20T04:59:55.688Z,18.19
2016-06-20T05:00:55.739Z,18
2016-06-20T05:01:55.195Z,18.08
2016-06-20T05:02:55.808Z,18.44
2016-06-20T05:03:55.858Z,18.4
2016-06-20T05:04:55.892Z,18.34
2016-06-20T05:05:55.928Z,18.5
2016-06-20T05:06:55.963Z,18.66
2016-06-20T05:07:55.997Z,18.63
2016-06-20T05:08:55.438Z,18.66
2016-06-20T05:09:56.082Z,18.6
2016-06-20T05:10:56.116Z,18.45
2016-06-20T05:11:56.151Z,18.52
2016-06-20T05:12:56.811Z,18.58
2016-06-20T05:13:56.845Z,18.7
2016-06-20T05:14:56.271Z,18.99
2016-06-20T05:15:56.915Z,19.34
2016-06-20T05:16:56.356Z,19.18
2016-06-20T05:17:57.001Z,19.21
2016-06-20T05:18:56.426Z,18.96
2016-06-20T05:19:56.476Z,18.75
2016-06-20T05:20:55.901Z,18.58
2016-06-20T05:21:55.936Z,18.59
2016-06-20T05:22:57.189Z,18.35
2016-06-20T05:23:56.630Z,18.37
2016-06-20T05:24:57.274Z,18.7
2016-06-20T05:25:56.106Z,18.95
2016-06-20T05:26:56.750Z,19.02
2016-06-20T05:27:56.175Z,19.29
2016-06-20T05:28:56.835Z,19.44
2016-06-20T05:29:56.261Z,19.56
2016-06-20T05:30:56.904Z,18.86
2016-06-20T05:31:57.564Z,18.63
2016-06-20T05:32:57.599Z,18.08
2016-06-20T05:33:57.024Z,17.76
2016-06-20T05:34:57.715Z,17.34
2016-06-20T05:35:57.110Z,17.2
2016-06-20T05:36:57.144Z,17.19
2016-06-20T05:37:56.570Z,17.42
2016-06-20T05:38:57.229Z,17.7
2016-06-20T05:39:56.670Z,17.89
2016-06-20T05:40:57.314Z,18.58
2016-06-20T05:41:56.739Z,18.8
2016-06-20T05:42:57.993Z,18.98
2016-06-20T05:43:57.418Z,19.45
2016-06-20T05:44:56.858Z,19.76
2016-06-20T05:45:58.112Z,19.92
2016-06-20T05:46:58.148Z,20.21
2016-06-20T05:47:57.588Z,20.56
2016-06-20T05:48:57.013Z,20.59
2016-06-20T05:49:57.689Z,20.5
2016-06-20T05:50:57.708Z,20.36
2016-06-20T05:51:58.368Z,20.34
2016-06-20T05:52:57.793Z,20.55
2016-06-20T05:53:57.828Z,20.5
2016-06-20T05:54:58.472Z,20.81
2016-06-20T05:55:58.522Z,20.51
2016-06-20T05:56:57.979Z,19.86
2016-06-20T05:57:58.607Z,19.62
2016-06-20T05:58:57.423Z,19.04
2016-06-20T05:59:58.676Z,18.71
2016-06-20T06:00:58.758Z,17.94
2016-06-20T06:01:58.153Z,17.57
2016-06-20T06:02:58.203Z,16.94
2016-06-20T06:03:57.628Z,16.81
2016-06-20T06:04:58.272Z,16.43
2016-06-20T06:05:58.322Z,16.6
2016-06-20T06:06:58.373Z,16.57
2016-06-20T06:07:58.407Z,16.54
2016-06-20T06:08:57.833Z,16.54
2016-06-20T06:09:58.477Z,16.65
2016-06-20T06:10:58.527Z,16.58
2016-06-20T06:11:58.562Z,16.6
2016-06-20T06:12:58.612Z,16.57
2016-06-20T06:13:58.022Z,16.64
2016-06-20T06:14:58.697Z,16.56
2016-06-20T06:15:59.341Z,16.57
2016-06-20T06:16:58.752Z,16.65
2016-06-20T06:17:58.801Z,16.6
2016-06-20T06:18:59.446Z,16.58
2016-06-20T06:19:58.871Z,16.66
2016-06-20T06:20:58.327Z,16.65
2016-06-20T06:21:59.566Z,16.54
2016-06-20T06:22:59.600Z,16.58
2016-06-20T06:23:59.635Z,16.6
2016-06-20T06:24:59.669Z,16.64
2016-06-20T06:25:59.719Z,16.74
2016-06-20T06:26:59.145Z,16.96
2016-06-20T06:27:59.180Z,16.96
2016-06-20T06:28:59.355Z,16.93
2016-06-20T06:29:59.874Z,16.96
2016-06-20T06:30:59.300Z,16.96
2016-06-20T06:31:59.365Z,16.78
2016-06-20T06:32:59.994Z,16.96
2016-06-20T06:33:58.810Z,16.93
2016-06-20T06:34:59.453Z,16.84
2016-06-20T06:35:59.489Z,16.86
2016-06-20T06:36:59.523Z,16.83
2016-06-20T06:38:00.167Z,16.76
2016-06-20T06:39:00.217Z,16.87
2016-06-20T06:40:00.284Z,16.89
2016-06-20T06:40:59.677Z,17.05
2016-06-20T06:41:59.102Z,17.14
2016-06-20T06:42:59.153Z,17.29
2016-06-20T06:44:00.406Z,17.06
2016-06-20T06:44:59.239Z,17.24
2016-06-20T06:45:59.867Z,17.39
2016-06-20T06:46:59.917Z,17.42
2016-06-20T06:47:59.937Z,17.39
2016-06-20T06:48:59.377Z,17.51
2016-06-20T06:50:00.022Z,17.57
2016-06-20T06:51:00.056Z,17.54
2016-06-20T06:52:00.701Z,17.65
2016-06-20T06:53:00.751Z,17.67
2016-06-20T06:54:00.176Z,17.57
2016-06-20T06:55:00.211Z,17.48
2016-06-20T06:56:00.245Z,17.56
2016-06-20T06:57:00.280Z,17.65
2016-06-20T06:58:00.940Z,17.63
2016-06-20T06:58:59.756Z,17.65
2016-06-20T06:59:59.806Z,17.7
2016-06-20T07:00:59.826Z,17.71
2016-06-20T07:02:01.095Z,17.57
2016-06-20T07:03:00.519Z,17.64
2016-06-20T07:04:01.164Z,17.54
2016-06-20T07:05:00.590Z,17.76
2016-06-20T07:06:00.624Z,17.78
2016-06-20T07:07:01.283Z,17.9
2016-06-20T07:08:00.709Z,17.94
2016-06-20T07:09:01.354Z,17.86
2016-06-20T07:10:01.388Z,17.65
2016-06-20T07:11:01.422Z,17.78
2016-06-20T07:12:01.457Z,17.85
2016-06-20T07:13:00.898Z,17.86
2016-06-20T07:14:01.542Z,17.94
2016-06-20T07:15:00.358Z,18.04
2016-06-20T07:16:01.002Z,18.22
2016-06-20T07:17:01.052Z,18.1
2016-06-20T07:18:01.697Z,18.28
2016-06-20T07:19:01.138Z,18.25
2016-06-20T07:20:01.766Z,18.43
2016-06-20T07:21:01.191Z,18.55
2016-06-20T07:22:01.851Z,18.56
2016-06-20T07:23:01.292Z,18.5
2016-06-20T07:24:01.921Z,18.6
2016-06-20T07:25:01.345Z,18.52
2016-06-20T07:26:01.380Z,18.52
2016-06-20T07:27:02.040Z,18.53
2016-06-20T07:28:01.465Z,18.5
2016-06-20T07:29:01.516Z,18.68
2016-06-20T07:30:02.150Z,18.7
2016-06-20T07:31:01.599Z,18.86
2016-06-20T07:32:01.641Z,18.9
2016-06-20T07:33:01.683Z,18.92
2016-06-20T07:34:01.725Z,18.93
2016-06-20T07:35:02.372Z,18.99
2016-06-20T07:36:01.816Z,19.09
2016-06-20T07:37:01.852Z,19.33
2016-06-20T07:38:01.905Z,19.26
2016-06-20T07:39:02.567Z,19.27
2016-06-20T07:40:02.588Z,19.45
2016-06-20T07:41:01.405Z,19.54
2016-06-20T07:42:02.050Z,19.62
2016-06-20T07:43:01.491Z,19.62
2016-06-20T07:44:01.528Z,19.85
2016-06-20T07:45:02.172Z,20.18
2016-06-20T07:46:01.614Z,20.48
2016-06-20T07:47:01.679Z,20.87
2016-06-20T07:48:02.294Z,21.58
2016-06-20T07:49:02.343Z,21.79
2016-06-20T07:50:02.363Z,22.44
2016-06-20T07:51:01.805Z,22.54
2016-06-20T07:52:02.463Z,22.44
2016-06-20T07:53:01.890Z,22.63
2016-06-20T07:54:01.923Z,22.83
2016-06-20T07:55:03.177Z,23.09
2016-06-20T07:56:02.618Z,23.21
2016-06-20T07:57:02.653Z,23.77
2016-06-20T07:58:02.079Z,24.05
2016-06-20T07:59:02.738Z,24.13
2016-06-20T08:00:02.773Z,24.26
2016-06-20T08:01:02.823Z,24.68
2016-06-20T08:02:03.467Z,24.73
2016-06-20T08:03:02.908Z,24.84
2016-06-20T08:04:03.552Z,25.07
2016-06-20T08:05:03.712Z,25.31
2016-06-20T08:06:02.419Z,24.95
2016-06-20T08:07:03.078Z,24.54
2016-06-20T08:08:03.113Z,24.6
2016-06-20T08:09:03.773Z,24.51
2016-06-20T08:10:03.807Z,24.58
2016-06-20T08:11:03.874Z,24.81
2016-06-20T08:12:02.689Z,24.88
2016-06-20T08:13:03.348Z,24.99
2016-06-20T08:14:03.415Z,25.11
2016-06-20T08:15:02.824Z,25.08
2016-06-20T08:16:03.484Z,25.41
2016-06-20T08:17:03.520Z,25.55
2016-06-20T08:18:04.319Z,25.07
2016-06-20T08:19:04.213Z,24.57
2016-06-20T08:20:03.045Z,24.91
2016-06-20T08:21:04.298Z,25.06
2016-06-20T08:22:04.364Z,24.5
2016-06-20T08:23:04.399Z,24.29
2016-06-20T08:24:03.824Z,24.11
2016-06-20T08:25:04.484Z,23.83
2016-06-20T08:26:04.550Z,23.74
2016-06-20T08:27:03.960Z,23.34
2016-06-20T08:28:04.650Z,23.12
2016-06-20T08:29:03.466Z,23.05
2016-06-20T08:30:04.720Z,23.05
2016-06-20T08:31:04.161Z,23.12
2016-06-20T08:32:04.196Z,23.08
2016-06-20T08:33:04.245Z,22.99
2016-06-20T08:34:04.297Z,22.76
2016-06-20T08:35:04.332Z,22.66
2016-06-20T08:36:05.006Z,22.36
2016-06-20T08:37:05.025Z,22.26
2016-06-20T08:38:04.498Z,22.62
2016-06-20T08:39:03.907Z,22.47
2016-06-20T08:40:04.567Z,22.39
2016-06-20T08:41:04.618Z,22.65
2016-06-20T08:42:04.026Z,22.65
2016-06-20T08:43:05.296Z,22.59
2016-06-20T08:44:04.722Z,22.36
2016-06-20T08:45:04.178Z,22.66
2016-06-20T08:46:04.838Z,22.62
2016-06-20T08:47:04.857Z,22.63
2016-06-20T08:48:04.922Z,22.36
2016-06-20T08:49:04.942Z,22.36
2016-06-20T08:50:04.399Z,22.44
2016-06-20T08:51:05.043Z,22.22
2016-06-20T08:52:05.687Z,22.11
2016-06-20T08:53:05.753Z,21.83
2016-06-20T08:54:05.787Z,21.77
2016-06-20T08:55:05.213Z,21.79
2016-06-20T08:56:05.873Z,21.76
2016-06-20T08:57:05.908Z,21.7
2016-06-20T08:58:05.348Z,21.66
2016-06-20T08:59:05.993Z,21.73
2016-06-20T09:00:05.433Z,22.33
2016-06-20T09:01:05.467Z,22.66
2016-06-20T09:02:04.909Z,22.87
2016-06-20T09:03:06.179Z,22.84
2016-06-20T09:04:05.588Z,22.72
2016-06-20T09:05:06.248Z,22.66
2016-06-20T09:06:05.688Z,22.6
2016-06-20T09:07:05.724Z,22.5
2016-06-20T09:08:05.774Z,22.57
2016-06-20T09:09:06.449Z,22.57
2016-06-20T09:10:05.265Z,22.18
2016-06-20T09:11:05.910Z,21.83
2016-06-20T09:12:06.585Z,21.55
2016-06-20T09:13:05.385Z,21.48
2016-06-20T09:14:05.419Z,21.61
2016-06-20T09:15:06.673Z,21.45
2016-06-20T09:16:06.739Z,21.45
2016-06-20T09:17:06.164Z,21.57
2016-06-20T09:18:05.605Z,21.5
2016-06-20T09:19:05.640Z,21.46
2016-06-20T09:20:05.690Z,21.72
2016-06-20T09:21:06.928Z,21.79
2016-06-20T09:22:06.384Z,22.14
2016-06-20T09:23:07.029Z,22.35
2016-06-20T09:24:07.266Z,22.39
2016-06-20T09:25:06.504Z,22.78
2016-06-20T09:26:06.539Z,22.72
2016-06-20T09:27:05.980Z,22.98
2016-06-20T09:28:07.249Z,23.54
2016-06-20T09:29:06.658Z,23.8
2016-06-20T09:30:07.318Z,24.05
2016-06-20T09:31:06.759Z,23.62
2016-06-20T09:32:07.419Z,23.17
2016-06-20T09:33:06.845Z,23.23
2016-06-20T09:34:07.488Z,22.93
2016-06-20T09:35:06.320Z,22.73
2016-06-20T09:36:06.964Z,22.69
2016-06-20T09:37:06.405Z,22.65
2016-06-20T09:38:07.064Z,22.68
2016-06-20T09:39:07.709Z,22.72
2016-06-20T09:40:07.759Z,22.81
2016-06-20T09:41:06.575Z,22.5
2016-06-20T09:42:07.234Z,22.91
2016-06-20T09:43:06.676Z,22.69
2016-06-20T09:44:06.711Z,22.44
2016-06-20T09:45:07.402Z,22.55
2016-06-20T09:46:07.406Z,22.65
2016-06-20T09:47:08.049Z,22.75
2016-06-20T09:48:06.881Z,22.91
2016-06-20T09:49:07.556Z,22.54
2016-06-20T09:50:07.981Z,22.62
2016-06-20T09:51:08.219Z,22.68
2016-06-20T09:52:08.269Z,22.8
2016-06-20T09:53:07.101Z,22.81
2016-06-20T09:54:08.370Z,22.45
2016-06-20T09:55:07.795Z,22.3
2016-06-20T09:56:07.830Z,22.25
2016-06-20T09:57:07.896Z,22.33
2016-06-20T09:58:07.931Z,22.39
2016-06-20T09:59:07.965Z,22.26
2016-06-20T10:00:07.407Z,22.33
2016-06-20T10:01:08.066Z,22.14
2016-06-20T10:02:08.100Z,22.14
2016-06-20T10:03:07.542Z,22.22
2016-06-20T10:04:08.795Z,22.2
2016-06-20T10:05:08.221Z,22.25
2016-06-20T10:06:08.272Z,22.08
2016-06-20T10:07:08.915Z,22.33
2016-06-20T10:08:07.747Z,22.26
2016-06-20T10:09:08.407Z,22.26
2016-06-20T10:10:08.442Z,22.41
2016-06-20T10:11:08.476Z,22.39
2016-06-20T10:12:07.918Z,22.33
2016-06-20T10:13:09.186Z,22.39
2016-06-20T10:14:08.002Z,22.51
2016-06-20T10:15:08.645Z,22.62
2016-06-20T10:16:09.307Z,22.48
2016-06-20T10:17:08.747Z,22.75
2016-06-20T10:18:08.188Z,22.83
2016-06-20T10:19:08.207Z,22.59
2016-06-20T10:20:08.257Z,22.83
2016-06-20T10:21:08.916Z,22.83
2016-06-20T10:22:08.967Z,22.93
2016-06-20T10:23:09.596Z,22.94
2016-06-20T10:24:09.052Z,22.8
2016-06-20T10:25:09.087Z,22.8
2016-06-20T10:26:08.591Z,23.02
2016-06-20T10:27:08.562Z,22.94
2016-06-20T10:28:09.206Z,22.75
2016-06-20T10:29:08.647Z,23.08
2016-06-20T10:30:09.292Z,23.55
2016-06-20T10:31:09.951Z,23.87
2016-06-20T10:32:09.987Z,23.84
2016-06-20T10:33:10.036Z,23.77
2016-06-20T10:34:09.509Z,23.95
2016-06-20T10:35:10.122Z,23.83
2016-06-20T10:36:09.563Z,23.77
2016-06-20T10:37:10.207Z,23.71
2016-06-20T10:38:09.647Z,23.87
2016-06-20T10:39:09.682Z,24.16
2016-06-20T10:40:09.123Z,24.21
2016-06-20T10:41:10.407Z,23.8
2016-06-20T10:42:09.833Z,23.73
2016-06-20T10:43:09.259Z,23.63
2016-06-20T10:44:10.543Z,23.83
2016-06-20T10:45:09.343Z,23.62
2016-06-20T10:46:09.394Z,23.37
2016-06-20T10:47:10.648Z,23.32
2016-06-20T10:48:10.088Z,23.05
2016-06-20T10:49:10.124Z,22.78
2016-06-20T10:50:10.783Z,22.78
2016-06-20T10:51:10.209Z,22.73
2016-06-20T10:52:10.259Z,22.55
2016-06-20T10:53:10.309Z,22.43
2016-06-20T10:54:09.734Z,22.26
2016-06-20T10:55:09.784Z,22.13
2016-06-20T10:56:10.429Z,22.08
2016-06-20T10:57:10.510Z,21.99
2016-06-20T10:58:10.545Z,21.76
2016-06-20T10:59:10.564Z,21.61
2016-06-20T11:00:10.614Z,21.69
2016-06-20T11:01:10.649Z,21.73
2016-06-20T11:02:10.700Z,21.54
2016-06-20T11:03:11.359Z,21.69
2016-06-20T11:04:11.393Z,21.79
2016-06-20T11:05:11.429Z,22.08
2016-06-20T11:06:10.869Z,21.79
2016-06-20T11:07:11.514Z,21.89
2016-06-20T11:08:11.564Z,21.83
2016-06-20T11:09:11.614Z,21.98
2016-06-20T11:10:11.649Z,22.25
2016-06-20T11:11:11.700Z,22.35
2016-06-20T11:12:11.734Z,22.25
2016-06-20T11:13:11.159Z,22.08
2016-06-20T11:14:10.585Z,22.25
2016-06-20T11:15:11.853Z,22.28
2016-06-20T11:16:11.295Z,22.28
2016-06-20T11:17:10.721Z,22.14
2016-06-20T11:18:10.771Z,22.06
2016-06-20T11:19:10.805Z,22.07
2016-06-20T11:20:11.449Z,21.95
2016-06-20T11:21:12.171Z,21.98
2016-06-20T11:22:12.144Z,21.99
2016-06-20T11:23:11.006Z,21.83
2016-06-20T11:24:12.229Z,21.88
2016-06-20T11:25:11.670Z,21.85
2016-06-20T11:26:11.705Z,21.99
2016-06-20T11:27:11.755Z,21.89
2016-06-20T11:28:11.789Z,21.77
2016-06-20T11:29:12.434Z,21.89
2016-06-20T11:30:11.890Z,21.98
2016-06-20T11:31:11.925Z,21.95
2016-06-20T11:32:11.959Z,21.92
2016-06-20T11:33:11.993Z,21.82
2016-06-20T11:34:12.029Z,21.73
2016-06-20T11:35:12.079Z,21.55
2016-06-20T11:36:12.739Z,21.57
2016-06-20T11:37:12.774Z,21.55
2016-06-20T11:38:12.871Z,21.58
2016-06-20T11:39:12.249Z,21.66
2016-06-20T11:40:12.893Z,21.7
2016-06-20T11:41:12.334Z,21.6
2016-06-20T11:42:12.994Z,21.77
2016-06-20T11:43:13.045Z,21.91
2016-06-20T11:44:13.064Z,21.96
2016-06-20T11:45:12.504Z,22.06
2016-06-20T11:46:12.539Z,22.08
2016-06-20T11:47:11.964Z,22.08
2016-06-20T11:48:12.015Z,21.93
2016-06-20T11:49:12.659Z,21.99
2016-06-20T11:50:12.710Z,21.99
2016-06-20T11:51:13.353Z,21.96
2016-06-20T11:52:13.388Z,21.99
2016-06-20T11:53:12.828Z,22.06
2016-06-20T11:54:12.895Z,22.11
2016-06-20T11:55:13.508Z,22.07
2016-06-20T11:56:12.948Z,22.02
2016-06-20T11:57:12.390Z,21.93
2016-06-20T11:58:13.643Z,21.83
2016-06-20T12:11:25.310Z,22.07
2016-06-20T12:11:49.888Z,22.06
2016-06-20T12:12:50.550Z,22.06
2016-06-20T12:13:49.990Z,22.18
2016-06-20T12:14:49.416Z,21.99
2016-06-20T12:15:50.061Z,22.02
2016-06-20T12:16:50.111Z,22.06
2016-06-20T12:17:50.146Z,22.11
2016-06-20T12:18:50.196Z,22.13
2016-06-20T12:19:50.262Z,22.08
2016-06-20T12:20:50.876Z,22.15
2016-06-20T12:21:50.926Z,22.14
2016-06-20T12:22:50.976Z,22.25
2016-06-20T12:23:50.401Z,22.17
2016-06-20T12:24:51.046Z,22.06
2016-06-20T12:25:51.080Z,21.99
2016-06-20T12:26:51.130Z,21.8
2016-06-20T12:27:50.556Z,21.77
2016-06-20T12:28:51.215Z,21.92
2016-06-20T12:29:50.657Z,21.77
2016-06-20T12:30:50.081Z,21.6
2016-06-20T12:31:50.726Z,21.73
2016-06-20T12:32:50.167Z,21.82
2016-06-20T12:33:51.421Z,21.82
2016-06-20T12:34:50.252Z,21.8
2016-06-20T12:35:50.912Z,21.64
2016-06-20T12:36:51.588Z,21.75
2016-06-20T12:37:50.388Z,21.76
2016-06-20T12:38:51.031Z,21.76
2016-06-20T12:39:51.676Z,21.73
2016-06-20T12:40:51.116Z,21.8
2016-06-20T12:41:51.151Z,21.72
2016-06-20T12:42:51.185Z,21.79
2016-06-20T12:43:51.237Z,21.66
2016-06-20T12:44:51.271Z,21.8
2016-06-20T12:45:51.930Z,21.69
2016-06-20T12:46:51.965Z,21.54
2016-06-20T12:47:51.390Z,21.57
2016-06-20T12:48:52.051Z,21.62
2016-06-20T12:49:52.085Z,21.72
2016-06-20T12:50:52.135Z,21.77
2016-06-20T12:51:50.951Z,21.88
2016-06-20T12:52:52.205Z,22.08
2016-06-20T12:53:52.271Z,22.17
2016-06-20T12:54:52.289Z,22.26
2016-06-20T12:55:51.715Z,22.25
2016-06-20T12:56:52.375Z,22.2
2016-06-20T12:57:51.816Z,22.1
2016-06-20T12:58:51.850Z,22.26
2016-06-20T12:59:52.542Z,22.28
2016-06-20T13:00:51.935Z,22.32
2016-06-20T13:01:51.361Z,22.53
2016-06-20T13:02:52.630Z,22.63
2016-06-20T13:03:52.664Z,22.65
2016-06-20T13:04:52.090Z,22.73
2016-06-20T13:05:52.157Z,22.85
2016-06-20T13:06:52.785Z,22.98
2016-06-20T13:07:51.616Z,23.17